sensor_id;sensor_type;location;lat;lon;timestamp;P1;durP1;ratioP1;P2;durP2;ratioP2
47659;SDS011;33403;43.608;1.458;2023-08-30T00:00:17;6.28;;;4.20;;
47659;SDS011;33403;43.608;1.458;2023-08-30T00:02:44;7.45;;;3.90;;
47659;SDS011;33403;43.608;1.458;2023-08-30T00:05:10;6.25;;;3.90;;
47659;SDS011;33403;43.608;1.458;2023-08-30T00:07:35;7.22;;;4.00;;
47659;SDS011;33403;43.608;1.458;2023-08-30T00:10:01;5.78;;;3.60;;
47659;SDS011;33403;43.608;1.458;2023-08-30T00:12:28;5.78;;;4.10;;
47659;SDS011;33403;43.608;1.458;2023-08-30T00:14:54;5.45;;;3.83;;
47659;SDS011;33403;43.608;1.458;2023-08-30T00:17:20;6.22;;;3.33;;
47659;SDS011;33403;43.608;1.458;2023-08-30T00:19:47;6.72;;;4.10;;
47659;SDS011;33403;43.608;1.458;2023-08-30T00:22:13;6.18;;;3.95;;
47659;SDS011;33403;43.608;1.458;2023-08-30T00:24:39;7.97;;;3.70;;
47659;SDS011;33403;43.608;1.458;2023-08-30T00:27:05;6.13;;;4.00;;
47659;SDS011;33403;43.608;1.458;2023-08-30T00:29:31;7.03;;;4.10;;
47659;SDS011;33403;43.608;1.458;2023-08-30T00:31:57;7.82;;;4.38;;
47659;SDS011;33403;43.608;1.458;2023-08-30T00:34:23;7.47;;;4.03;;
47659;SDS011;33403;43.608;1.458;2023-08-30T00:36:48;7.53;;;4.40;;
47659;SDS011;33403;43.608;1.458;2023-08-30T00:39:14;5.10;;;4.10;;
47659;SDS011;33403;43.608;1.458;2023-08-30T00:41:40;7.38;;;4.13;;
47659;SDS011;33403;43.608;1.458;2023-08-30T00:44:06;7.63;;;4.25;;
47659;SDS011;33403;43.608;1.458;2023-08-30T00:46:32;6.47;;;3.90;;
47659;SDS011;33403;43.608;1.458;2023-08-30T00:48:59;5.65;;;3.70;;
47659;SDS011;33403;43.608;1.458;2023-08-30T00:51:25;6.47;;;3.60;;
47659;SDS011;33403;43.608;1.458;2023-08-30T00:53:52;6.63;;;3.80;;
47659;SDS011;33403;43.608;1.458;2023-08-30T00:56:19;6.22;;;4.10;;
47659;SDS011;33403;43.608;1.458;2023-08-30T00:58:46;4.97;;;3.80;;
47659;SDS011;33403;43.608;1.458;2023-08-30T01:01:14;6.90;;;3.92;;
47659;SDS011;33403;43.608;1.458;2023-08-30T01:03:43;7.95;;;3.65;;
47659;SDS011;33403;43.608;1.458;2023-08-30T01:06:09;5.53;;;3.55;;
47659;SDS011;33403;43.608;1.458;2023-08-30T01:08:35;6.70;;;4.05;;
47659;SDS011;33403;43.608;1.458;2023-08-30T01:13:47;6.93;;;4.00;;
47659;SDS011;33403;43.608;1.458;2023-08-30T01:16:19;8.27;;;4.20;;
47659;SDS011;33403;43.608;1.458;2023-08-30T01:18:46;6.88;;;4.20;;
47659;SDS011;33403;43.608;1.458;2023-08-30T01:21:14;6.97;;;3.80;;
47659;SDS011;33403;43.608;1.458;2023-08-30T01:24:10;6.05;;;4.13;;
47659;SDS011;33403;43.608;1.458;2023-08-30T01:29:34;6.88;;;4.13;;
47659;SDS011;33403;43.608;1.458;2023-08-30T01:32:01;6.72;;;4.13;;
47659;SDS011;33403;43.608;1.458;2023-08-30T01:34:27;6.25;;;4.00;;
47659;SDS011;33403;43.608;1.458;2023-08-30T01:36:53;5.70;;;3.78;;
47659;SDS011;33403;43.608;1.458;2023-08-30T01:39:19;7.80;;;4.35;;
47659;SDS011;33403;43.608;1.458;2023-08-30T01:41:47;6.05;;;4.15;;
47659;SDS011;33403;43.608;1.458;2023-08-30T01:44:12;11.40;;;4.40;;
47659;SDS011;33403;43.608;1.458;2023-08-30T01:46:41;6.97;;;3.95;;
47659;SDS011;33403;43.608;1.458;2023-08-30T01:49:09;6.35;;;4.38;;
47659;SDS011;33403;43.608;1.458;2023-08-30T01:51:35;7.15;;;4.07;;
47659;SDS011;33403;43.608;1.458;2023-08-30T01:54:02;5.97;;;4.00;;
47659;SDS011;33403;43.608;1.458;2023-08-30T01:56:29;6.15;;;3.80;;
47659;SDS011;33403;43.608;1.458;2023-08-30T01:58:55;5.63;;;3.75;;
47659;SDS011;33403;43.608;1.458;2023-08-30T02:01:20;6.00;;;3.90;;
47659;SDS011;33403;43.608;1.458;2023-08-30T02:03:46;10.13;;;4.10;;
47659;SDS011;33403;43.608;1.458;2023-08-30T02:06:17;5.50;;;3.90;;
47659;SDS011;33403;43.608;1.458;2023-08-30T02:09:02;8.30;;;4.63;;
47659;SDS011;33403;43.608;1.458;2023-08-30T02:11:34;5.88;;;4.15;;
47659;SDS011;33403;43.608;1.458;2023-08-30T02:14:02;9.07;;;4.00;;
47659;SDS011;33403;43.608;1.458;2023-08-30T02:16:31;7.22;;;4.35;;
47659;SDS011;33403;43.608;1.458;2023-08-30T02:18:58;7.55;;;4.10;;
47659;SDS011;33403;43.608;1.458;2023-08-30T02:21:24;6.82;;;3.83;;
47659;SDS011;33403;43.608;1.458;2023-08-30T02:23:52;5.72;;;3.95;;
47659;SDS011;33403;43.608;1.458;2023-08-30T02:26:19;5.95;;;4.47;;
47659;SDS011;33403;43.608;1.458;2023-08-30T02:28:45;7.05;;;4.30;;
47659;SDS011;33403;43.608;1.458;2023-08-30T02:31:10;7.75;;;3.78;;
47659;SDS011;33403;43.608;1.458;2023-08-30T02:33:36;7.90;;;4.00;;
47659;SDS011;33403;43.608;1.458;2023-08-30T02:36:05;6.28;;;4.15;;
47659;SDS011;33403;43.608;1.458;2023-08-30T02:38:31;6.03;;;3.88;;
47659;SDS011;33403;43.608;1.458;2023-08-30T02:40:56;6.57;;;4.32;;
47659;SDS011;33403;43.608;1.458;2023-08-30T02:43:22;8.65;;;4.45;;
47659;SDS011;33403;43.608;1.458;2023-08-30T02:45:48;6.80;;;3.63;;
47659;SDS011;33403;43.608;1.458;2023-08-30T02:48:14;6.80;;;3.80;;
47659;SDS011;33403;43.608;1.458;2023-08-30T02:50:40;8.77;;;4.15;;
47659;SDS011;33403;43.608;1.458;2023-08-30T02:53:06;7.95;;;4.10;;
47659;SDS011;33403;43.608;1.458;2023-08-30T02:55:34;8.45;;;4.15;;
47659;SDS011;33403;43.608;1.458;2023-08-30T02:58:00;8.90;;;3.53;;
47659;SDS011;33403;43.608;1.458;2023-08-30T03:00:26;6.22;;;3.90;;
47659;SDS011;33403;43.608;1.458;2023-08-30T03:02:52;8.95;;;4.00;;
47659;SDS011;33403;43.608;1.458;2023-08-30T03:05:18;5.93;;;3.65;;
47659;SDS011;33403;43.608;1.458;2023-08-30T03:07:43;5.65;;;3.80;;
47659;SDS011;33403;43.608;1.458;2023-08-30T03:10:10;7.43;;;4.03;;
47659;SDS011;33403;43.608;1.458;2023-08-30T03:12:37;7.03;;;4.50;;
47659;SDS011;33403;43.608;1.458;2023-08-30T03:15:02;6.07;;;3.97;;
47659;SDS011;33403;43.608;1.458;2023-08-30T03:17:29;11.00;;;4.70;;
47659;SDS011;33403;43.608;1.458;2023-08-30T03:19:55;6.38;;;4.22;;
47659;SDS011;33403;43.608;1.458;2023-08-30T03:22:21;6.97;;;4.05;;
47659;SDS011;33403;43.608;1.458;2023-08-30T03:24:47;7.63;;;4.68;;
47659;SDS011;33403;43.608;1.458;2023-08-30T03:27:14;7.20;;;4.03;;
47659;SDS011;33403;43.608;1.458;2023-08-30T03:29:40;7.05;;;4.25;;
47659;SDS011;33403;43.608;1.458;2023-08-30T03:32:06;7.72;;;4.43;;
47659;SDS011;33403;43.608;1.458;2023-08-30T03:34:31;6.68;;;4.32;;
47659;SDS011;33403;43.608;1.458;2023-08-30T03:36:57;6.63;;;4.15;;
47659;SDS011;33403;43.608;1.458;2023-08-30T03:39:23;6.50;;;3.70;;
47659;SDS011;33403;43.608;1.458;2023-08-30T03:41:49;8.23;;;4.80;;
47659;SDS011;33403;43.608;1.458;2023-08-30T03:44:15;7.82;;;4.30;;
47659;SDS011;33403;43.608;1.458;2023-08-30T03:46:40;7.35;;;4.25;;
47659;SDS011;33403;43.608;1.458;2023-08-30T03:49:06;8.98;;;4.50;;
47659;SDS011;33403;43.608;1.458;2023-08-30T03:51:32;7.45;;;4.35;;
47659;SDS011;33403;43.608;1.458;2023-08-30T03:53:57;7.70;;;4.45;;
47659;SDS011;33403;43.608;1.458;2023-08-30T03:56:23;6.57;;;4.07;;
47659;SDS011;33403;43.608;1.458;2023-08-30T03:58:49;6.05;;;4.25;;
47659;SDS011;33403;43.608;1.458;2023-08-30T04:01:14;7.30;;;4.22;;
47659;SDS011;33403;43.608;1.458;2023-08-30T04:03:40;6.70;;;4.43;;
47659;SDS011;33403;43.608;1.458;2023-08-30T04:06:06;7.55;;;4.47;;
47659;SDS011;33403;43.608;1.458;2023-08-30T04:08:32;6.85;;;3.92;;
47659;SDS011;33403;43.608;1.458;2023-08-30T04:10:57;8.07;;;4.40;;
47659;SDS011;33403;43.608;1.458;2023-08-30T04:13:23;7.75;;;4.50;;
47659;SDS011;33403;43.608;1.458;2023-08-30T04:15:49;8.25;;;4.55;;
47659;SDS011;33403;43.608;1.458;2023-08-30T04:18:16;7.18;;;4.03;;
47659;SDS011;33403;43.608;1.458;2023-08-30T04:20:45;7.47;;;4.13;;
47659;SDS011;33403;43.608;1.458;2023-08-30T04:23:11;8.98;;;4.60;;
47659;SDS011;33403;43.608;1.458;2023-08-30T04:25:37;7.22;;;4.30;;
47659;SDS011;33403;43.608;1.458;2023-08-30T04:28:03;6.85;;;4.25;;
47659;SDS011;33403;43.608;1.458;2023-08-30T04:30:29;7.32;;;4.68;;
47659;SDS011;33403;43.608;1.458;2023-08-30T04:32:55;7.85;;;4.35;;
47659;SDS011;33403;43.608;1.458;2023-08-30T04:35:21;7.95;;;4.25;;
47659;SDS011;33403;43.608;1.458;2023-08-30T04:37:46;10.43;;;4.65;;
47659;SDS011;33403;43.608;1.458;2023-08-30T04:40:13;8.38;;;4.65;;
47659;SDS011;33403;43.608;1.458;2023-08-30T04:42:39;7.70;;;4.10;;
47659;SDS011;33403;43.608;1.458;2023-08-30T04:45:05;8.05;;;4.30;;
47659;SDS011;33403;43.608;1.458;2023-08-30T04:47:32;7.35;;;4.70;;
47659;SDS011;33403;43.608;1.458;2023-08-30T04:49:58;8.80;;;4.65;;
47659;SDS011;33403;43.608;1.458;2023-08-30T04:52:24;7.95;;;4.43;;
47659;SDS011;33403;43.608;1.458;2023-08-30T04:54:50;7.25;;;4.38;;
47659;SDS011;33403;43.608;1.458;2023-08-30T04:57:16;7.95;;;4.28;;
47659;SDS011;33403;43.608;1.458;2023-08-30T04:59:42;8.13;;;4.55;;
47659;SDS011;33403;43.608;1.458;2023-08-30T05:02:08;9.38;;;4.97;;
47659;SDS011;33403;43.608;1.458;2023-08-30T05:04:34;7.28;;;4.60;;
47659;SDS011;33403;43.608;1.458;2023-08-30T05:07:00;6.88;;;4.38;;
47659;SDS011;33403;43.608;1.458;2023-08-30T05:09:26;8.98;;;4.40;;
47659;SDS011;33403;43.608;1.458;2023-08-30T05:11:52;9.20;;;4.70;;
47659;SDS011;33403;43.608;1.458;2023-08-30T05:14:21;7.38;;;3.80;;
47659;SDS011;33403;43.608;1.458;2023-08-30T05:16:48;8.00;;;4.60;;
47659;SDS011;33403;43.608;1.458;2023-08-30T05:19:15;6.75;;;4.40;;
47659;SDS011;33403;43.608;1.458;2023-08-30T05:21:43;9.07;;;4.45;;
47659;SDS011;33403;43.608;1.458;2023-08-30T05:24:09;7.60;;;4.53;;
47659;SDS011;33403;43.608;1.458;2023-08-30T05:26:35;7.03;;;4.55;;
47659;SDS011;33403;43.608;1.458;2023-08-30T05:29:01;7.85;;;4.78;;
47659;SDS011;33403;43.608;1.458;2023-08-30T05:31:27;8.90;;;4.85;;
47659;SDS011;33403;43.608;1.458;2023-08-30T05:33:53;9.63;;;4.10;;
47659;SDS011;33403;43.608;1.458;2023-08-30T05:36:18;8.00;;;4.70;;
47659;SDS011;33403;43.608;1.458;2023-08-30T05:38:44;11.95;;;4.78;;
47659;SDS011;33403;43.608;1.458;2023-08-30T05:41:09;7.90;;;4.63;;
47659;SDS011;33403;43.608;1.458;2023-08-30T05:43:35;8.50;;;4.70;;
47659;SDS011;33403;43.608;1.458;2023-08-30T05:46:01;11.77;;;4.55;;
47659;SDS011;33403;43.608;1.458;2023-08-30T05:48:30;9.68;;;4.65;;
47659;SDS011;33403;43.608;1.458;2023-08-30T05:50:57;8.45;;;4.30;;
47659;SDS011;33403;43.608;1.458;2023-08-30T05:53:23;10.70;;;5.13;;
47659;SDS011;33403;43.608;1.458;2023-08-30T05:55:49;9.10;;;5.03;;
47659;SDS011;33403;43.608;1.458;2023-08-30T05:58:15;7.93;;;4.55;;
47659;SDS011;33403;43.608;1.458;2023-08-30T06:00:42;9.60;;;4.75;;
47659;SDS011;33403;43.608;1.458;2023-08-30T06:03:08;6.45;;;4.60;;
47659;SDS011;33403;43.608;1.458;2023-08-30T06:05:33;16.75;;;5.25;;
47659;SDS011;33403;43.608;1.458;2023-08-30T06:07:59;9.75;;;4.93;;
47659;SDS011;33403;43.608;1.458;2023-08-30T06:10:25;9.30;;;4.50;;
47659;SDS011;33403;43.608;1.458;2023-08-30T06:12:51;8.55;;;4.78;;
47659;SDS011;33403;43.608;1.458;2023-08-30T06:15:17;8.10;;;4.90;;
47659;SDS011;33403;43.608;1.458;2023-08-30T06:17:43;7.57;;;4.70;;
47659;SDS011;33403;43.608;1.458;2023-08-30T06:20:08;7.35;;;4.43;;
47659;SDS011;33403;43.608;1.458;2023-08-30T06:22:34;9.60;;;4.70;;
47659;SDS011;33403;43.608;1.458;2023-08-30T06:25:00;8.35;;;4.30;;
47659;SDS011;33403;43.608;1.458;2023-08-30T06:27:26;6.90;;;4.57;;
47659;SDS011;33403;43.608;1.458;2023-08-30T06:29:51;7.40;;;4.57;;
47659;SDS011;33403;43.608;1.458;2023-08-30T06:32:17;8.07;;;4.57;;
47659;SDS011;33403;43.608;1.458;2023-08-30T06:34:43;7.07;;;4.38;;
47659;SDS011;33403;43.608;1.458;2023-08-30T06:37:08;9.85;;;4.72;;
47659;SDS011;33403;43.608;1.458;2023-08-30T06:39:34;8.55;;;4.38;;
47659;SDS011;33403;43.608;1.458;2023-08-30T06:42:01;8.00;;;4.43;;
47659;SDS011;33403;43.608;1.458;2023-08-30T06:44:27;7.90;;;4.43;;
47659;SDS011;33403;43.608;1.458;2023-08-30T06:46:54;10.55;;;4.95;;
47659;SDS011;33403;43.608;1.458;2023-08-30T06:49:23;8.45;;;4.60;;
47659;SDS011;33403;43.608;1.458;2023-08-30T06:51:49;7.68;;;4.60;;
47659;SDS011;33403;43.608;1.458;2023-08-30T06:54:15;8.18;;;4.32;;
47659;SDS011;33403;43.608;1.458;2023-08-30T06:56:41;7.45;;;4.28;;
47659;SDS011;33403;43.608;1.458;2023-08-30T06:59:06;7.45;;;4.47;;
47659;SDS011;33403;43.608;1.458;2023-08-30T07:01:32;8.20;;;4.32;;
47659;SDS011;33403;43.608;1.458;2023-08-30T07:03:57;7.95;;;4.45;;
47659;SDS011;33403;43.608;1.458;2023-08-30T07:06:23;6.85;;;4.40;;
47659;SDS011;33403;43.608;1.458;2023-08-30T07:08:49;7.65;;;4.63;;
47659;SDS011;33403;43.608;1.458;2023-08-30T07:11:15;9.32;;;4.25;;
47659;SDS011;33403;43.608;1.458;2023-08-30T07:13:40;9.07;;;4.35;;
47659;SDS011;33403;43.608;1.458;2023-08-30T07:16:06;7.70;;;4.30;;
47659;SDS011;33403;43.608;1.458;2023-08-30T07:18:31;6.95;;;4.15;;
47659;SDS011;33403;43.608;1.458;2023-08-30T07:20:57;7.43;;;4.18;;
47659;SDS011;33403;43.608;1.458;2023-08-30T07:23:23;7.72;;;4.20;;
47659;SDS011;33403;43.608;1.458;2023-08-30T07:25:48;7.93;;;3.90;;
47659;SDS011;33403;43.608;1.458;2023-08-30T07:28:16;6.57;;;4.10;;
47659;SDS011;33403;43.608;1.458;2023-08-30T07:30:42;6.97;;;4.00;;
47659;SDS011;33403;43.608;1.458;2023-08-30T07:33:08;8.50;;;4.20;;
47659;SDS011;33403;43.608;1.458;2023-08-30T07:35:33;6.90;;;4.30;;
47659;SDS011;33403;43.608;1.458;2023-08-30T07:37:59;7.78;;;4.30;;
47659;SDS011;33403;43.608;1.458;2023-08-30T07:40:25;7.68;;;4.22;;
47659;SDS011;33403;43.608;1.458;2023-08-30T07:42:53;6.32;;;4.47;;
47659;SDS011;33403;43.608;1.458;2023-08-30T07:45:18;8.55;;;4.35;;
47659;SDS011;33403;43.608;1.458;2023-08-30T07:47:44;7.53;;;4.25;;
47659;SDS011;33403;43.608;1.458;2023-08-30T07:50:10;7.45;;;4.30;;
47659;SDS011;33403;43.608;1.458;2023-08-30T07:52:35;7.03;;;3.95;;
47659;SDS011;33403;43.608;1.458;2023-08-30T07:55:01;7.90;;;3.97;;
47659;SDS011;33403;43.608;1.458;2023-08-30T07:57:27;7.57;;;4.38;;
47659;SDS011;33403;43.608;1.458;2023-08-30T07:59:52;7.88;;;4.10;;
47659;SDS011;33403;43.608;1.458;2023-08-30T08:02:18;6.20;;;3.88;;
47659;SDS011;33403;43.608;1.458;2023-08-30T08:04:44;6.18;;;4.00;;
47659;SDS011;33403;43.608;1.458;2023-08-30T08:07:09;6.68;;;3.90;;
47659;SDS011;33403;43.608;1.458;2023-08-30T08:09:35;7.72;;;3.75;;
47659;SDS011;33403;43.608;1.458;2023-08-30T08:12:02;5.40;;;3.70;;
47659;SDS011;33403;43.608;1.458;2023-08-30T08:14:28;5.05;;;3.50;;
47659;SDS011;33403;43.608;1.458;2023-08-30T08:16:54;8.82;;;3.90;;
47659;SDS011;33403;43.608;1.458;2023-08-30T08:19:19;6.03;;;3.70;;
47659;SDS011;33403;43.608;1.458;2023-08-30T08:21:46;9.73;;;3.90;;
47659;SDS011;33403;43.608;1.458;2023-08-30T08:24:12;4.75;;;3.42;;
47659;SDS011;33403;43.608;1.458;2023-08-30T08:26:37;7.28;;;3.63;;
47659;SDS011;33403;43.608;1.458;2023-08-30T08:29:03;5.20;;;3.65;;
47659;SDS011;33403;43.608;1.458;2023-08-30T08:31:29;5.22;;;3.60;;
47659;SDS011;33403;43.608;1.458;2023-08-30T08:34:08;8.02;;;3.47;;
47659;SDS011;33403;43.608;1.458;2023-08-30T08:36:35;5.63;;;3.63;;
47659;SDS011;33403;43.608;1.458;2023-08-30T08:39:01;6.43;;;3.65;;
47659;SDS011;33403;43.608;1.458;2023-08-30T08:41:31;6.53;;;3.50;;
47659;SDS011;33403;43.608;1.458;2023-08-30T08:44:06;6.45;;;3.45;;
47659;SDS011;33403;43.608;1.458;2023-08-30T08:46:34;5.22;;;3.53;;
47659;SDS011;33403;43.608;1.458;2023-08-30T08:49:16;6.45;;;3.65;;
47659;SDS011;33403;43.608;1.458;2023-08-30T08:51:42;5.75;;;3.70;;
47659;SDS011;33403;43.608;1.458;2023-08-30T08:54:09;6.53;;;3.72;;
47659;SDS011;33403;43.608;1.458;2023-08-30T08:56:36;7.28;;;3.70;;
47659;SDS011;33403;43.608;1.458;2023-08-30T08:59:03;7.80;;;3.88;;
47659;SDS011;33403;43.608;1.458;2023-08-30T09:01:30;7.43;;;3.80;;
47659;SDS011;33403;43.608;1.458;2023-08-30T09:03:59;10.40;;;4.47;;
47659;SDS011;33403;43.608;1.458;2023-08-30T09:06:26;9.43;;;3.95;;
47659;SDS011;33403;43.608;1.458;2023-08-30T09:08:53;6.30;;;3.40;;
47659;SDS011;33403;43.608;1.458;2023-08-30T09:11:19;6.47;;;3.60;;
47659;SDS011;33403;43.608;1.458;2023-08-30T09:13:44;6.18;;;3.92;;
47659;SDS011;33403;43.608;1.458;2023-08-30T09:16:13;5.85;;;3.60;;
47659;SDS011;33403;43.608;1.458;2023-08-30T09:18:43;7.20;;;3.97;;
47659;SDS011;33403;43.608;1.458;2023-08-30T09:21:09;6.78;;;4.03;;
47659;SDS011;33403;43.608;1.458;2023-08-30T09:23:35;7.07;;;3.92;;
47659;SDS011;33403;43.608;1.458;2023-08-30T09:26:01;9.43;;;4.18;;
47659;SDS011;33403;43.608;1.458;2023-08-30T09:28:28;6.43;;;3.72;;
47659;SDS011;33403;43.608;1.458;2023-08-30T09:30:54;7.90;;;4.32;;
47659;SDS011;33403;43.608;1.458;2023-08-30T09:33:22;7.22;;;4.22;;
47659;SDS011;33403;43.608;1.458;2023-08-30T09:35:49;6.88;;;3.72;;
47659;SDS011;33403;43.608;1.458;2023-08-30T09:38:18;5.88;;;3.50;;
47659;SDS011;33403;43.608;1.458;2023-08-30T09:40:44;5.20;;;3.47;;
47659;SDS011;33403;43.608;1.458;2023-08-30T09:43:11;5.78;;;3.28;;
47659;SDS011;33403;43.608;1.458;2023-08-30T09:45:37;6.82;;;4.00;;
47659;SDS011;33403;43.608;1.458;2023-08-30T09:48:03;7.82;;;3.80;;
47659;SDS011;33403;43.608;1.458;2023-08-30T09:50:33;7.22;;;3.75;;
47659;SDS011;33403;43.608;1.458;2023-08-30T09:53:01;6.60;;;3.78;;
47659;SDS011;33403;43.608;1.458;2023-08-30T09:55:31;6.20;;;3.95;;
47659;SDS011;33403;43.608;1.458;2023-08-30T09:57:58;5.78;;;3.50;;
47659;SDS011;33403;43.608;1.458;2023-08-30T10:00:25;6.70;;;4.05;;
47659;SDS011;33403;43.608;1.458;2023-08-30T10:02:51;5.32;;;3.80;;
47659;SDS011;33403;43.608;1.458;2023-08-30T10:05:16;7.10;;;3.97;;
47659;SDS011;33403;43.608;1.458;2023-08-30T10:07:43;6.72;;;3.88;;
47659;SDS011;33403;43.608;1.458;2023-08-30T10:10:10;5.28;;;3.42;;
47659;SDS011;33403;43.608;1.458;2023-08-30T10:12:36;5.82;;;3.83;;
47659;SDS011;33403;43.608;1.458;2023-08-30T10:15:04;5.28;;;3.70;;
47659;SDS011;33403;43.608;1.458;2023-08-30T10:17:31;7.10;;;4.05;;
47659;SDS011;33403;43.608;1.458;2023-08-30T10:19:59;6.78;;;4.20;;
47659;SDS011;33403;43.608;1.458;2023-08-30T10:22:29;5.43;;;3.90;;
47659;SDS011;33403;43.608;1.458;2023-08-30T10:25:03;6.88;;;4.40;;
47659;SDS011;33403;43.608;1.458;2023-08-30T10:27:33;5.95;;;3.97;;
47659;SDS011;33403;43.608;1.458;2023-08-30T10:30:01;8.80;;;4.88;;
47659;SDS011;33403;43.608;1.458;2023-08-30T10:32:29;7.15;;;4.43;;
47659;SDS011;33403;43.608;1.458;2023-08-30T10:34:56;7.03;;;3.70;;
47659;SDS011;33403;43.608;1.458;2023-08-30T10:37:26;7.50;;;3.90;;
47659;SDS011;33403;43.608;1.458;2023-08-30T10:39:52;5.68;;;3.70;;
47659;SDS011;33403;43.608;1.458;2023-08-30T10:42:22;7.28;;;3.95;;
47659;SDS011;33403;43.608;1.458;2023-08-30T10:47:18;6.72;;;3.55;;
47659;SDS011;33403;43.608;1.458;2023-08-30T10:49:46;6.13;;;3.70;;
47659;SDS011;33403;43.608;1.458;2023-08-30T10:52:13;5.45;;;2.95;;
47659;SDS011;33403;43.608;1.458;2023-08-30T10:54:38;7.00;;;3.30;;
47659;SDS011;33403;43.608;1.458;2023-08-30T10:57:04;5.43;;;2.88;;
47659;SDS011;33403;43.608;1.458;2023-08-30T10:59:30;5.93;;;3.22;;
47659;SDS011;33403;43.608;1.458;2023-08-30T11:01:56;4.75;;;3.00;;
47659;SDS011;33403;43.608;1.458;2023-08-30T11:04:26;6.07;;;2.92;;
47659;SDS011;33403;43.608;1.458;2023-08-30T11:06:52;4.28;;;2.90;;
47659;SDS011;33403;43.608;1.458;2023-08-30T11:09:21;5.25;;;3.17;;
47659;SDS011;33403;43.608;1.458;2023-08-30T11:11:49;4.22;;;2.80;;
47659;SDS011;33403;43.608;1.458;2023-08-30T11:14:16;4.68;;;2.95;;
47659;SDS011;33403;43.608;1.458;2023-08-30T11:16:42;4.93;;;3.20;;
47659;SDS011;33403;43.608;1.458;2023-08-30T11:19:09;4.53;;;2.80;;
47659;SDS011;33403;43.608;1.458;2023-08-30T11:21:37;4.65;;;3.00;;
47659;SDS011;33403;43.608;1.458;2023-08-30T11:24:08;3.55;;;2.72;;
47659;SDS011;33403;43.608;1.458;2023-08-30T11:26:34;4.28;;;2.60;;
47659;SDS011;33403;43.608;1.458;2023-08-30T11:29:07;4.75;;;2.50;;
47659;SDS011;33403;43.608;1.458;2023-08-30T11:31:33;4.55;;;2.83;;
47659;SDS011;33403;43.608;1.458;2023-08-30T11:33:59;4.80;;;2.50;;
47659;SDS011;33403;43.608;1.458;2023-08-30T11:36:27;5.28;;;2.70;;
47659;SDS011;33403;43.608;1.458;2023-08-30T11:38:54;5.55;;;2.78;;
47659;SDS011;33403;43.608;1.458;2023-08-30T11:41:21;3.33;;;2.50;;
47659;SDS011;33403;43.608;1.458;2023-08-30T11:43:47;4.10;;;2.90;;
47659;SDS011;33403;43.608;1.458;2023-08-30T11:46:14;3.33;;;2.58;;
47659;SDS011;33403;43.608;1.458;2023-08-30T11:48:40;3.25;;;2.60;;
47659;SDS011;33403;43.608;1.458;2023-08-30T11:51:06;4.07;;;2.50;;
47659;SDS011;33403;43.608;1.458;2023-08-30T11:53:33;3.22;;;2.42;;
47659;SDS011;33403;43.608;1.458;2023-08-30T11:55:59;3.63;;;2.58;;
47659;SDS011;33403;43.608;1.458;2023-08-30T11:58:26;3.80;;;2.60;;
47659;SDS011;33403;43.608;1.458;2023-08-30T12:00:52;4.13;;;2.60;;
47659;SDS011;33403;43.608;1.458;2023-08-30T12:03:22;4.45;;;2.78;;
47659;SDS011;33403;43.608;1.458;2023-08-30T12:05:48;4.60;;;2.60;;
47659;SDS011;33403;43.608;1.458;2023-08-30T12:08:28;2.97;;;2.38;;
47659;SDS011;33403;43.608;1.458;2023-08-30T12:10:56;4.22;;;2.60;;
47659;SDS011;33403;43.608;1.458;2023-08-30T12:13:40;5.43;;;2.80;;
47659;SDS011;33403;43.608;1.458;2023-08-30T12:16:05;4.00;;;2.67;;
47659;SDS011;33403;43.608;1.458;2023-08-30T12:18:32;2.75;;;2.20;;
47659;SDS011;33403;43.608;1.458;2023-08-30T12:21:04;4.05;;;2.50;;
47659;SDS011;33403;43.608;1.458;2023-08-30T12:23:30;5.18;;;2.70;;
47659;SDS011;33403;43.608;1.458;2023-08-30T12:26:02;3.65;;;2.50;;
47659;SDS011;33403;43.608;1.458;2023-08-30T12:28:30;3.45;;;2.20;;
47659;SDS011;33403;43.608;1.458;2023-08-30T12:30:58;3.28;;;2.30;;
47659;SDS011;33403;43.608;1.458;2023-08-30T12:33:24;2.60;;;2.13;;
47659;SDS011;33403;43.608;1.458;2023-08-30T12:35:50;3.78;;;2.35;;
47659;SDS011;33403;43.608;1.458;2023-08-30T12:38:17;3.28;;;2.47;;
47659;SDS011;33403;43.608;1.458;2023-08-30T12:40:46;3.55;;;2.60;;
47659;SDS011;33403;43.608;1.458;2023-08-30T12:43:13;3.17;;;2.38;;
47659;SDS011;33403;43.608;1.458;2023-08-30T12:45:39;3.50;;;2.70;;
47659;SDS011;33403;43.608;1.458;2023-08-30T12:48:06;2.53;;;2.30;;
47659;SDS011;33403;43.608;1.458;2023-08-30T12:50:33;3.35;;;2.50;;
47659;SDS011;33403;43.608;1.458;2023-08-30T12:53:00;4.07;;;2.45;;
47659;SDS011;33403;43.608;1.458;2023-08-30T12:55:26;3.47;;;2.30;;
47659;SDS011;33403;43.608;1.458;2023-08-30T12:57:52;4.35;;;2.53;;
47659;SDS011;33403;43.608;1.458;2023-08-30T13:00:18;3.20;;;2.42;;
47659;SDS011;33403;43.608;1.458;2023-08-30T13:02:44;2.78;;;2.30;;
47659;SDS011;33403;43.608;1.458;2023-08-30T13:05:10;3.00;;;2.17;;
47659;SDS011;33403;43.608;1.458;2023-08-30T13:07:36;2.80;;;2.00;;
47659;SDS011;33403;43.608;1.458;2023-08-30T13:10:02;3.45;;;1.90;;
47659;SDS011;33403;43.608;1.458;2023-08-30T13:12:28;3.97;;;2.10;;
47659;SDS011;33403;43.608;1.458;2023-08-30T13:14:54;3.70;;;2.22;;
47659;SDS011;33403;43.608;1.458;2023-08-30T13:17:20;2.42;;;1.80;;
47659;SDS011;33403;43.608;1.458;2023-08-30T13:19:45;2.00;;;1.80;;
47659;SDS011;33403;43.608;1.458;2023-08-30T13:22:11;2.00;;;1.77;;
47659;SDS011;33403;43.608;1.458;2023-08-30T13:24:36;2.13;;;1.80;;
47659;SDS011;33403;43.608;1.458;2023-08-30T13:27:02;2.40;;;1.60;;
47659;SDS011;33403;43.608;1.458;2023-08-30T13:29:29;3.10;;;1.70;;
47659;SDS011;33403;43.608;1.458;2023-08-30T13:31:55;2.17;;;1.60;;
47659;SDS011;33403;43.608;1.458;2023-08-30T13:34:20;2.35;;;1.88;;
47659;SDS011;33403;43.608;1.458;2023-08-30T13:36:46;1.67;;;1.50;;
47659;SDS011;33403;43.608;1.458;2023-08-30T13:39:12;3.53;;;1.63;;
47659;SDS011;33403;43.608;1.458;2023-08-30T13:41:37;2.38;;;1.80;;
47659;SDS011;33403;43.608;1.458;2023-08-30T13:44:03;2.42;;;2.03;;
47659;SDS011;33403;43.608;1.458;2023-08-30T13:46:29;2.50;;;1.80;;
47659;SDS011;33403;43.608;1.458;2023-08-30T13:48:55;1.65;;;1.52;;
47659;SDS011;33403;43.608;1.458;2023-08-30T13:51:22;2.85;;;1.80;;
47659;SDS011;33403;43.608;1.458;2023-08-30T13:53:48;1.95;;;1.67;;
47659;SDS011;33403;43.608;1.458;2023-08-30T13:56:14;3.53;;;1.90;;
47659;SDS011;33403;43.608;1.458;2023-08-30T13:58:40;3.22;;;1.90;;
47659;SDS011;33403;43.608;1.458;2023-08-30T14:01:06;2.55;;;2.05;;
47659;SDS011;33403;43.608;1.458;2023-08-30T14:03:32;2.88;;;2.15;;
47659;SDS011;33403;43.608;1.458;2023-08-30T14:05:58;2.45;;;2.00;;
47659;SDS011;33403;43.608;1.458;2023-08-30T14:08:24;1.70;;;1.60;;
47659;SDS011;33403;43.608;1.458;2023-08-30T14:10:49;2.70;;;1.80;;
47659;SDS011;33403;43.608;1.458;2023-08-30T14:13:15;1.80;;;1.67;;
47659;SDS011;33403;43.608;1.458;2023-08-30T14:15:41;2.00;;;1.60;;
47659;SDS011;33403;43.608;1.458;2023-08-30T14:18:07;2.80;;;1.90;;
47659;SDS011;33403;43.608;1.458;2023-08-30T14:20:33;29.42;;;13.93;;
47659;SDS011;33403;43.608;1.458;2023-08-30T14:22:59;4.53;;;2.72;;
47659;SDS011;33403;43.608;1.458;2023-08-30T14:25:24;3.00;;;2.33;;
47659;SDS011;33403;43.608;1.458;2023-08-30T14:27:50;2.25;;;2.00;;
47659;SDS011;33403;43.608;1.458;2023-08-30T14:30:16;2.30;;;1.95;;
47659;SDS011;33403;43.608;1.458;2023-08-30T14:32:41;3.47;;;2.05;;
47659;SDS011;33403;43.608;1.458;2023-08-30T14:35:07;3.45;;;2.28;;
47659;SDS011;33403;43.608;1.458;2023-08-30T14:37:33;2.10;;;1.80;;
47659;SDS011;33403;43.608;1.458;2023-08-30T14:40:06;2.53;;;1.95;;
47659;SDS011;33403;43.608;1.458;2023-08-30T14:42:32;4.55;;;2.22;;
47659;SDS011;33403;43.608;1.458;2023-08-30T14:44:58;3.97;;;2.08;;
47659;SDS011;33403;43.608;1.458;2023-08-30T14:47:24;2.63;;;2.00;;
47659;SDS011;33403;43.608;1.458;2023-08-30T14:49:49;2.42;;;2.00;;
47659;SDS011;33403;43.608;1.458;2023-08-30T14:52:15;2.83;;;2.17;;